Time;durP1;ratioP1;P1;durP2;ratioP2;P2;SDS_P1;SDS_P2;PMS_P1;PMS_P2;Temp;Humidity;BMP_temperature;BMP_pressure;BME280_temperature;BME280_humidity;BME280_pressure;Samples;Min_cycle;Max_cycle;Signal;HPM_P1;HPM_P2
2021/12/09 00:00:06;;;;;;;31.20;17.08;;;;;;;1.34;68.23;96370.78;9884890;30;20124;-77
2021/12/09 00:05:42;;;;;;;27.45;15.77;;;;;;;1.36;68.20;96359.97;9888361;29;20060;-77
2021/12/09 00:11:04;;;;;;;31.75;17.13;;;;;;;1.38;68.31;96356.63;9885523;30;20054;-77
2021/12/09 00:16:25;;;;;;;27.73;16.48;;;;;;;1.41;68.36;96339.72;9897528;30;20051;-77
2021/12/09 00:21:47;;;;;;;29.88;16.90;;;;;;;1.47;68.69;96355.25;9896627;30;20047;-77
2021/12/09 00:27:08;;;;;;;29.27;16.48;;;;;;;1.46;68.19;96370.31;9896915;30;20044;-77
2021/12/09 00:32:29;;;;;;;26.45;15.82;;;;;;;1.45;68.48;96369.59;9883985;30;20047;-77
2021/12/09 00:43:37;;;;;;;28.52;16.63;;;;;;;1.60;68.32;96374.91;9882105;30;20396;-77
2021/12/09 00:48:58;;;;;;;29.83;17.40;;;;;;;1.54;68.41;96370.94;9883459;30;20104;-77
2021/12/09 00:54:19;;;;;;;28.33;17.02;;;;;;;1.47;68.52;96360.75;9865444;30;20056;-77
2021/12/09 00:59:40;;;;;;;33.13;18.02;;;;;;;1.46;68.24;96373.06;9859238;30;20083;-77
2021/12/09 01:05:01;;;;;;;30.00;17.95;;;;;;;1.48;68.24;96386.97;9863923;30;20052;-77
2021/12/09 01:10:22;;;;;;;29.70;17.00;;;;;;;1.46;68.03;96398.53;9871070;29;20107;-77
2021/12/09 01:15:44;;;;;;;27.05;17.08;;;;;;;1.49;68.82;96391.91;9859357;30;20054;-77
2021/12/09 01:21:05;;;;;;;30.70;18.10;;;;;;;1.51;67.89;96392.06;9860100;30;20093;-77
2021/12/09 01:26:28;;;;;;;29.40;17.27;;;;;;;1.56;68.55;96387.63;9850082;30;20065;-77
2021/12/09 01:31:58;;;;;;;28.30;16.65;;;;;;;1.56;68.74;96390.38;9872887;30;20085;-78
2021/12/09 01:37:19;;;;;;;27.27;16.23;;;;;;;1.63;68.51;96384.03;9871508;30;20082;-77
2021/12/09 01:42:42;;;;;;;31.40;18.10;;;;;;;1.65;68.56;96365.69;9858491;30;20043;-77
2021/12/09 01:48:03;;;;;;;29.70;17.20;;;;;;;1.65;68.95;96375.97;9859100;30;20514;-77
2021/12/09 01:53:25;;;;;;;32.80;17.20;;;;;;;1.61;68.55;96370.84;9871288;30;20805;-77
2021/12/09 01:58:49;;;;;;;27.13;16.60;;;;;;;1.66;68.47;96385.66;9859585;30;20044;-77
2021/12/09 02:04:10;;;;;;;29.98;17.38;;;;;;;1.63;68.39;96373.03;9847690;29;20524;-78
2021/12/09 02:09:32;;;;;;;28.50;17.33;;;;;;;1.60;68.44;96412.69;9860650;30;20070;-77
2021/12/09 02:14:54;;;;;;;30.27;17.67;;;;;;;1.69;68.28;96409.28;9860878;30;20048;-77
2021/12/09 02:20:15;;;;;;;29.88;17.27;;;;;;;1.64;68.76;96415.75;9874811;29;20121;-77
2021/12/09 02:25:39;;;;;;;29.13;17.02;;;;;;;1.69;68.47;96436.78;9870412;30;20091;-77
2021/12/09 02:31:00;;;;;;;28.83;17.05;;;;;;;1.78;68.10;96416.88;9851878;30;20075;-77
2021/12/09 02:36:22;;;;;;;30.00;16.67;;;;;;;1.77;68.45;96415.44;9839866;30;20123;-77
2021/12/09 02:41:44;;;;;;;32.30;17.48;;;;;;;1.78;68.41;96394.16;9851584;30;20047;-77
2021/12/09 02:47:05;;;;;;;30.45;17.38;;;;;;;1.72;68.59;96386.13;9851448;30;20419;-77
2021/12/09 02:52:27;;;;;;;30.45;17.73;;;;;;;1.77;68.53;96407.19;9839055;30;20056;-77
2021/12/09 02:57:51;;;;;;;26.77;17.02;;;;;;;1.84;68.03;96375.38;9850684;30;20051;-77
2021/12/09 03:03:13;;;;;;;27.92;17.42;;;;;;;1.75;68.31;96373.28;9848166;30;20071;-77
2021/12/09 03:08:35;;;;;;;29.50;17.05;;;;;;;1.80;68.63;96416.31;9837488;30;20143;-77
2021/12/09 03:13:57;;;;;;;31.75;18.73;;;;;;;1.84;68.57;96431.13;9850445;30;20051;-77
2021/12/09 03:19:18;;;;;;;27.02;17.73;;;;;;;1.79;68.36;96410.09;9850440;30;20135;-77
2021/12/09 03:24:40;;;;;;;31.58;18.13;;;;;;;1.75;68.62;96401.53;9850169;30;20482;-77
2021/12/09 03:30:02;;;;;;;29.75;18.25;;;;;;;1.79;68.50;96396.31;9849997;30;20454;-77
2021/12/09 03:35:24;;;;;;;29.60;18.67;;;;;;;1.77;68.49;96412.69;9848925;30;20428;-77
2021/12/09 03:40:45;;;;;;;30.50;18.42;;;;;;;1.75;68.45;96425.56;9849370;30;20135;-77
2021/12/09 03:46:06;;;;;;;30.40;18.27;;;;;;;1.73;68.27;96445.38;9849047;30;20056;-77
2021/12/09 03:51:28;;;;;;;30.52;19.15;;;;;;;1.77;68.56;96453.94;9848812;30;20048;-77
2021/12/09 03:56:49;;;;;;;29.98;17.92;;;;;;;1.79;68.61;96462.38;9848692;30;20475;-77
2021/12/09 04:02:10;;;;;;;32.80;18.88;;;;;;;1.83;68.49;96451.66;9860672;30;20055;-77
2021/12/09 04:07:31;;;;;;;30.67;19.10;;;;;;;1.84;68.51;96457.94;9848286;30;20492;-77
2021/12/09 04:12:52;;;;;;;31.40;18.90;;;;;;;1.88;68.71;96461.72;9847990;30;20488;-77
2021/12/09 04:18:14;;;;;;;34.03;19.50;;;;;;;1.87;68.35;96446.50;9848295;30;20051;-77
2021/12/09 04:23:36;;;;;;;32.08;19.02;;;;;;;1.86;68.04;96455.34;9848059;30;20051;-77
2021/12/09 04:28:57;;;;;;;30.50;19.00;;;;;;;1.84;68.01;96464.16;9847447;30;20093;-77
2021/12/09 04:34:18;;;;;;;30.95;19.27;;;;;;;1.77;68.16;96462.22;9847394;30;20538;-77
2021/12/09 04:39:39;;;;;;;33.08;19.67;;;;;;;1.71;68.95;96476.19;9847661;30;20533;-77
2021/12/09 04:45:00;;;;;;;30.73;19.65;;;;;;;1.70;69.16;96463.00;9846564;30;20461;-77
2021/12/09 04:50:22;;;;;;;33.40;20.27;;;;;;;1.68;70.06;96455.31;9859118;30;20122;-77
2021/12/09 04:55:43;;;;;;;33.38;20.67;;;;;;;1.73;70.06;96459.13;9862532;30;20376;-77
2021/12/09 05:01:06;;;;;;;31.88;20.30;;;;;;;1.76;70.58;96457.28;9860903;30;20050;-77
2021/12/09 05:06:29;;;;;;;30.98;18.90;;;;;;;1.75;70.88;96455.81;9849326;30;20092;-78
2021/12/09 05:11:50;;;;;;;31.67;19.65;;;;;;;1.75;70.98;96462.06;9875975;30;20049;-77
2021/12/09 05:17:11;;;;;;;34.17;20.50;;;;;;;1.69;70.93;96445.78;9859469;30;20131;-77
2021/12/09 05:22:33;;;;;;;27.33;18.40;;;;;;;1.66;71.48;96462.69;9857573;30;20483;-77
2021/12/09 05:27:54;;;;;;;31.80;20.52;;;;;;;1.63;71.82;96450.78;9858689;30;20055;-77
2021/12/09 05:33:15;;;;;;;34.60;21.10;;;;;;;1.59;71.50;96438.75;9861471;30;20059;-78
2021/12/09 05:38:38;;;;;;;34.95;21.15;;;;;;;1.58;71.54;96448.28;9861191;30;20135;-77
2021/12/09 05:44:01;;;;;;;35.65;20.95;;;;;;;1.58;71.83;96451.75;9873837;30;20044;-77
2021/12/09 05:49:22;;;;;;;31.98;21.52;;;;;;;1.60;72.75;96476.69;9881072;30;20414;-78
2021/12/09 05:54:43;;;;;;;33.05;21.92;;;;;;;1.57;72.62;96513.56;9882407;29;20047;-78
2021/12/09 06:00:06;;;;;;;36.00;21.27;;;;;;;1.48;73.55;96505.22;9889952;30;20047;-77
2021/12/09 06:05:33;;;;;;;38.17;23.05;;;;;;;1.42;72.72;96513.69;9891444;29;20084;-77
2021/12/09 06:10:54;;;;;;;33.50;21.60;;;;;;;1.46;72.33;96511.28;9889329;30;20475;-77
2021/12/09 06:16:16;;;;;;;32.25;19.98;;;;;;;1.44;73.24;96478.09;9901157;30;20507;-77
2021/12/09 06:21:38;;;;;;;27.92;19.00;;;;;;;1.53;73.14;96482.97;9893443;30;20494;-78
2021/12/09 06:26:59;;;;;;;27.35;19.90;;;;;;;1.63;73.49;96514.03;9850205;30;20495;-77
2021/12/09 06:32:20;;;;;;;27.10;19.42;;;;;;;1.65;74.00;96516.97;9863828;30;20131;-77
2021/12/09 06:37:45;;;;;;;34.53;22.23;;;;;;;1.62;73.19;96509.84;9863103;30;20150;-78
2021/12/09 06:43:06;;;;;;;29.83;20.90;;;;;;;1.64;73.67;96495.53;9851558;30;20079;-77
2021/12/09 06:48:27;;;;;;;31.38;20.48;;;;;;;1.66;73.39;96487.44;9851380;30;20139;-77
2021/12/09 06:53:48;;;;;;;29.27;19.92;;;;;;;1.63;73.23;96477.56;9848690;30;20052;-77
2021/12/09 06:59:09;;;;;;;33.45;20.60;;;;;;;1.69;73.88;96478.78;9838758;30;20048;-77
2021/12/09 07:04:30;;;;;;;28.02;19.60;;;;;;;1.77;73.16;96469.72;9850560;30;20063;-77
2021/12/09 07:09:51;;;;;;;28.70;19.40;;;;;;;1.83;73.04;96495.69;9849273;30;20064;-77
2021/12/09 07:15:13;;;;;;;31.95;20.42;;;;;;;1.89;73.64;96504.44;9849252;30;20072;-77
2021/12/09 07:20:34;;;;;;;33.75;22.42;;;;;;;1.89;73.33;96498.94;9849892;30;20551;-77
2021/12/09 07:25:55;;;;;;;33.38;21.80;;;;;;;1.86;73.66;96502.84;9850005;30;20060;-77
2021/12/09 07:31:16;;;;;;;31.92;20.65;;;;;;;1.85;73.70;96509.63;9849668;30;20121;-77
2021/12/09 07:36:38;;;;;;;32.65;21.33;;;;;;;1.95;73.63;96515.97;9849372;30;20054;-77
2021/12/09 07:41:59;;;;;;;31.55;21.75;;;;;;;1.99;73.83;96519.03;9849358;30;20059;-77
2021/12/09 07:47:23;;;;;;;37.03;22.83;;;;;;;2.07;73.44;96540.25;9849873;30;20105;-77
2021/12/09 07:52:45;;;;;;;33.95;21.88;;;;;;;2.01;73.68;96538.44;9849354;30;20059;-77
2021/12/09 07:58:05;;;;;;;34.10;21.25;;;;;;;2.06;73.34;96552.53;9848324;30;20043;-77
2021/12/09 08:03:26;;;;;;;32.40;21.55;;;;;;;2.07;73.51;96532.72;9848228;30;20122;-77
2021/12/09 08:08:47;;;;;;;32.90;20.88;;;;;;;2.03;74.08;96559.91;9836085;30;20060;-77
2021/12/09 08:14:11;;;;;;;34.47;21.02;;;;;;;2.08;74.28;96555.47;9847937;30;20051;-77
2021/12/09 08:19:33;;;;;;;33.65;21.42;;;;;;;2.07;74.47;96551.25;9836277;30;20093;-77
2021/12/09 08:24:55;;;;;;;32.78;21.83;;;;;;;2.12;73.99;96545.50;9847709;30;20059;-77
2021/12/09 08:30:20;;;;;;;33.58;21.83;;;;;;;2.26;73.79;96556.91;9850608;30;20114;-77
2021/12/09 08:36:02;;;;;;;33.67;21.33;;;;;;;2.29;73.51;96539.97;9831617;30;20056;-78
2021/12/09 08:41:24;;;;;;;32.38;21.58;;;;;;;2.32;73.45;96543.66;9859492;30;20075;-78
2021/12/09 08:46:47;;;;;;;36.83;22.83;;;;;;;2.33;73.74;96558.88;9859824;30;20056;-78
2021/12/09 08:52:09;;;;;;;31.70;21.90;;;;;;;2.33;73.90;96556.13;9860076;30;20052;-78
2021/12/09 08:57:32;;;;;;;34.45;22.45;;;;;;;2.40;73.48;96574.56;9859311;30;20055;-79
2021/12/09 09:02:53;;;;;;;34.83;22.30;;;;;;;2.46;73.33;96583.31;9859359;30;20075;-79
2021/12/09 09:08:18;;;;;;;33.85;21.98;;;;;;;2.50;73.53;96585.66;9860052;30;20063;-78
2021/12/09 09:13:41;;;;;;;33.92;22.13;;;;;;;2.52;73.28;96583.81;9858925;30;20044;-79
2021/12/09 09:19:02;;;;;;;34.17;21.33;;;;;;;2.54;73.69;96594.25;9859380;30;20055;-79
2021/12/09 09:24:23;;;;;;;37.17;22.27;;;;;;;2.50;73.62;96619.44;9859057;30;20501;-78
2021/12/09 09:29:45;;;;;;;36.05;22.92;;;;;;;2.50;73.58;96605.66;9858455;30;20452;-79
2021/12/09 09:35:10;;;;;;;33.75;22.20;;;;;;;2.57;73.48;96601.38;9858571;30;20403;-78
2021/12/09 09:40:49;;;;;;;33.95;21.63;;;;;;;2.58;73.35;96584.28;9859820;30;20055;-79
2021/12/09 09:46:19;;;;;;;34.33;21.83;;;;;;;2.67;73.75;96584.91;9861356;30;20216;-80
2021/12/09 09:51:40;;;;;;;36.63;23.90;;;;;;;2.74;73.32;96560.03;9888581;30;20074;-80
2021/12/09 09:57:02;;;;;;;40.28;26.00;;;;;;;2.86;73.59;96569.22;9902134;30;20131;-78
2021/12/09 10:02:24;;;;;;;46.78;27.10;;;;;;;2.94;73.28;96571.16;9870989;29;20051;-78
2021/12/09 10:07:44;;;;;;;42.20;26.38;;;;;;;3.03;72.71;96576.00;9871377;30;20130;-78
2021/12/09 10:13:07;;;;;;;48.47;28.75;;;;;;;3.09;72.85;96562.69;9881905;30;20483;-78
2021/12/09 10:24:45;;;;;;;;;;;;;;;3.37;72.22;96561.34;10095764;24;20094;-78
2021/12/09 10:30:13;;;;;;;56.72;33.90;;;;;;;3.33;72.62;96559.03;9820847;30;20025;-79
2021/12/09 10:35:34;;;;;;;53.25;32.67;;;;;;;3.31;71.94;96531.28;9833724;30;20508;-79
2021/12/09 10:40:55;;;;;;;46.33;28.52;;;;;;;3.38;71.43;96562.81;9808663;30;20048;-79
2021/12/09 10:46:49;;;;;;;48.25;29.80;;;;;;;3.25;71.71;96583.22;9892979;24;20028;-84
2021/12/09 10:52:34;;;;;;;48.60;30.48;;;;;;;3.40;72.05;96555.44;10486191;24;21128;-80
2021/12/09 11:17:13;;;;;;;46.22;29.35;;;;;;;3.52;71.40;96582.47;10387181;24;21107;-82
2021/12/09 11:22:37;;;;;;;48.72;29.45;;;;;;;3.42;71.38;96574.88;9813547;30;20048;-78
2021/12/09 11:28:09;;;;;;;51.72;29.20;;;;;;;3.43;70.94;96548.03;9831218;30;20071;-82
2021/12/09 11:33:33;;;;;;;49.92;29.83;;;;;;;3.53;71.04;96551.53;9818332;30;20135;-77
2021/12/09 11:39:11;;;;;;;51.50;29.38;;;;;;;3.47;70.95;96584.19;9804462;30;20470;-78
2021/12/09 11:44:32;;;;;;;48.80;30.67;;;;;;;3.41;71.16;96572.72;9813976;30;20044;-78
2021/12/09 11:49:54;;;;;;;53.05;30.23;;;;;;;3.40;71.12;96565.72;9813467;30;20044;-78
2021/12/09 11:55:17;;;;;;;48.67;30.13;;;;;;;3.39;70.93;96550.50;9824565;30;20218;-79
2021/12/09 12:12:22;;;;;;;48.42;29.80;;;;;;;3.51;70.98;96534.84;9836317;30;20480;-78
2021/12/09 12:18:13;;;;;;;52.70;30.55;;;;;;;3.53;71.14;96583.94;9826347;30;20419;-80
2021/12/09 12:40:22;;;;;;;49.15;29.98;;;;;;;3.57;69.55;96567.66;9836061;30;20060;-80
2021/12/09 12:45:59;;;;;;;48.85;30.50;;;;;;;3.47;70.11;96581.41;9811984;30;20059;-74
2021/12/09 12:51:46;;;;;;;45.25;28.73;;;;;;;3.41;69.85;96572.72;9825054;30;20044;-80
2021/12/09 12:57:16;;;;;;;48.40;30.55;;;;;;;3.39;70.13;96578.81;9811551;30;20128;-80
2021/12/09 13:21:59;;;;;;;55.95;32.97;;;;;;;3.09;70.04;96582.72;9859409;30;20093;-77
2021/12/09 13:28:06;;;;;;;52.17;30.58;;;;;;;3.02;70.44;96580.78;9834981;30;20124;-77
2021/12/09 13:50:48;;;;;;;53.53;32.03;;;;;;;2.94;69.96;96585.69;9850901;30;20051;-76
2021/12/09 13:56:09;;;;;;;55.47;33.00;;;;;;;2.90;69.54;96593.63;9864290;30;20047;-76
2021/12/09 14:01:30;;;;;;;53.30;31.35;;;;;;;2.83;70.54;96578.66;9846601;30;20044;-76
2021/12/09 14:07:00;;;;;;;55.80;32.78;;;;;;;2.80;70.38;96590.09;9826653;30;20060;-78
2021/12/09 14:12:22;;;;;;;54.70;33.28;;;;;;;2.80;69.92;96601.13;9833956;30;20048;-79
2021/12/09 14:18:00;;;;;;;55.95;33.22;;;;;;;2.73;70.24;96593.66;9843358;30;20059;-78
2021/12/09 14:23:21;;;;;;;53.38;31.30;;;;;;;2.67;70.18;96596.66;9842038;30;20055;-78
2021/12/09 14:28:42;;;;;;;62.90;34.75;;;;;;;2.65;70.20;96604.03;9851838;30;20514;-78
2021/12/09 14:34:03;;;;;;;59.05;34.33;;;;;;;2.63;70.10;96614.91;9851234;30;20104;-78
2021/12/09 14:39:24;;;;;;;54.78;34.47;;;;;;;2.58;70.36;96606.31;9863282;30;20498;-78
2021/12/09 14:44:56;;;;;;;56.85;33.70;;;;;;;2.50;70.33;96608.41;9850961;30;20062;-78
2021/12/09 14:50:17;;;;;;;63.65;35.60;;;;;;;2.45;70.38;96619.69;9851162;30;20059;-78
2021/12/09 14:55:40;;;;;;;59.42;34.30;;;;;;;2.42;70.45;96613.31;9830811;30;20094;-78
2021/12/09 15:01:04;;;;;;;62.38;35.60;;;;;;;2.39;70.76;96624.72;9802121;30;20048;-76
2021/12/09 15:06:28;;;;;;;;;;;;;;;2.32;71.05;96626.25;9827251;30;20048;-75
2021/12/09 15:11:51;;;;;;;64.30;37.08;;;;;;;2.28;70.68;96634.19;9825921;30;20016;-76
2021/12/09 15:17:20;;;;;;;63.38;36.03;;;;;;;2.26;71.09;96634.75;9813429;30;20511;-76
2021/12/09 15:22:54;;;;;;;66.18;35.55;;;;;;;2.24;70.85;96628.34;9814737;30;20055;-75
2021/12/09 15:28:17;;;;;;;66.70;36.05;;;;;;;2.26;71.12;96628.50;9825427;30;20106;-76
2021/12/09 15:33:41;;;;;;;60.58;33.78;;;;;;;2.28;71.32;96636.94;9813151;30;20488;-76
2021/12/09 15:39:08;;;;;;;62.60;35.63;;;;;;;2.26;71.15;96645.75;9800878;30;20055;-76
2021/12/09 15:44:36;;;;;;;58.80;34.17;;;;;;;2.28;70.96;96631.44;9813032;30;20412;-76
2021/12/09 15:50:02;;;;;;;59.60;34.25;;;;;;;2.28;71.27;96625.91;9813348;30;20056;-76
2021/12/09 15:55:30;;;;;;;54.65;32.72;;;;;;;2.27;71.53;96616.19;9812686;30;20056;-76
2021/12/09 16:00:51;;;;;;;57.78;33.72;;;;;;;2.29;70.93;96608.81;9826517;30;21232;-76
2021/12/09 16:06:12;;;;;;;57.97;32.50;;;;;;;2.28;71.20;96617.66;9848488;30;20055;-76
2021/12/09 16:11:33;;;;;;;56.90;33.20;;;;;;;2.28;71.00;96610.13;9860643;30;20113;-76
2021/12/09 16:16:58;;;;;;;55.15;32.20;;;;;;;2.32;71.01;96620.75;9848725;30;20126;-76
2021/12/09 16:27:46;;;;;;;54.20;29.67;;;;;;;2.32;71.12;96620.75;9865605;30;20544;-81
2021/12/09 16:33:08;;;;;;;52.60;31.10;;;;;;;2.32;71.34;96631.78;9888764;30;20047;-81
2021/12/09 16:38:30;;;;;;;49.80;28.70;;;;;;;2.31;71.00;96633.03;9893826;30;20036;-85
2021/12/09 16:43:52;;;;;;;48.22;29.15;;;;;;;2.23;71.21;96626.91;9892084;30;20035;-83
2021/12/09 16:49:13;;;;;;;53.03;29.48;;;;;;;2.26;71.15;96623.00;9858945;30;20052;-76
2021/12/09 16:54:41;;;;;;;47.67;27.52;;;;;;;2.25;71.49;96624.31;9845455;30;20403;-76
2021/12/09 17:00:03;;;;;;;49.13;28.25;;;;;;;2.24;71.42;96620.09;9861234;30;20055;-78
2021/12/09 17:05:24;;;;;;;53.25;30.75;;;;;;;2.18;71.33;96623.06;9859435;30;20044;-78
2021/12/09 17:10:44;;;;;;;49.75;28.90;;;;;;;2.16;71.21;96630.44;9846361;30;20055;-77
2021/12/09 17:16:05;;;;;;;45.03;27.92;;;;;;;2.17;71.22;96620.88;9862063;30;20527;-79
2021/12/09 17:21:26;;;;;;;46.80;28.30;;;;;;;2.16;70.89;96620.16;9825157;30;1161898;-80
2021/12/09 17:26:48;;;;;;;40.97;25.00;;;;;;;2.16;71.37;96613.94;9856607;30;20135;-79
2021/12/09 17:32:09;;;;;;;48.35;27.23;;;;;;;2.13;71.91;96609.56;9802572;30;20400;-76
2021/12/09 17:37:30;;;;;;;44.53;26.55;;;;;;;2.13;71.78;96601.31;9810576;30;20381;-77
2021/12/09 17:42:51;;;;;;;42.13;24.58;;;;;;;2.14;71.48;96600.00;9809721;30;20397;-76
2021/12/09 17:48:13;;;;;;;42.80;25.00;;;;;;;2.10;71.33;96583.16;9809963;30;20123;-78
2021/12/09 17:53:35;;;;;;;44.80;26.13;;;;;;;2.07;71.33;96582.25;9827991;30;20506;-79
2021/12/09 17:58:57;;;;;;;43.88;25.95;;;;;;;2.07;71.80;96600.81;9873707;30;20052;-81
2021/12/09 18:04:17;;;;;;;43.90;27.05;;;;;;;2.07;71.45;96622.81;9872589;30;20452;-78
2021/12/09 18:09:38;;;;;;;44.85;27.30;;;;;;;2.08;71.24;96641.53;9843640;30;20059;-79
2021/12/09 18:15:00;;;;;;;48.05;27.85;;;;;;;2.07;71.60;96662.09;9858533;30;20040;-79
2021/12/09 18:20:22;;;;;;;48.25;27.73;;;;;;;2.06;71.84;96654.41;9854602;30;20173;-78
2021/12/09 18:25:45;;;;;;;50.38;27.70;;;;;;;2.00;71.59;96658.09;9828178;30;20078;-77
2021/12/09 18:31:12;;;;;;;44.90;27.10;;;;;;;2.01;71.69;96670.56;9841477;30;20056;-77
2021/12/09 18:36:34;;;;;;;47.00;28.00;;;;;;;2.00;71.79;96655.34;9864309;30;20047;-77
2021/12/09 18:41:55;;;;;;;52.10;29.42;;;;;;;2.04;71.96;96657.00;9854429;30;20514;-77
2021/12/09 18:47:16;;;;;;;52.17;29.50;;;;;;;2.08;72.21;96635.28;9864531;30;20189;-78
2021/12/09 18:52:38;;;;;;;46.53;27.95;;;;;;;2.10;72.08;96627.19;9863455;30;20051;-76
2021/12/09 18:58:19;;;;;;;53.22;30.75;;;;;;;2.13;71.56;96618.56;9875933;30;20506;-76
2021/12/09 19:03:40;;;;;;;51.90;28.95;;;;;;;2.11;72.24;96606.63;9827692;30;20127;-78
2021/12/09 19:09:01;;;;;;;47.90;28.70;;;;;;;2.13;71.85;96607.53;9829538;30;20052;-77
2021/12/09 19:14:23;;;;;;;57.08;30.15;;;;;;;2.06;72.32;96604.84;9826640;30;20052;-78
2021/12/09 19:19:44;;;;;;;49.88;29.83;;;;;;;2.12;72.01;96597.06;9826892;30;20064;-77
2021/12/09 19:25:07;;;;;;;50.47;29.38;;;;;;;2.14;72.04;96594.50;9826357;30;20110;-77
2021/12/09 19:30:31;;;;;;;50.13;29.13;;;;;;;2.15;71.69;96593.94;9813531;30;20478;-77
2021/12/09 19:35:51;;;;;;;52.03;29.98;;;;;;;2.16;72.37;96598.13;9825321;30;20082;-77
2021/12/09 19:41:12;;;;;;;49.55;28.00;;;;;;;2.18;71.97;96597.56;9801161;30;20454;-77
2021/12/09 19:46:34;;;;;;;50.00;29.52;;;;;;;2.18;72.59;96592.78;9824926;30;20075;-76
2021/12/09 19:51:54;;;;;;;51.55;29.40;;;;;;;2.18;71.99;96595.53;9812534;30;20052;-77
2021/12/09 19:57:16;;;;;;;48.35;28.38;;;;;;;2.17;72.23;96609.88;9811997;30;20048;-77
2021/12/09 20:02:37;;;;;;;44.17;27.38;;;;;;;2.16;72.32;96600.88;9812021;30;20052;-77
2021/12/09 20:07:58;;;;;;;49.00;27.00;;;;;;;2.23;72.50;96571.84;9800189;30;20056;-77
2021/12/09 20:13:19;;;;;;;43.25;25.60;;;;;;;2.20;72.34;96570.91;9823740;30;20059;-77
2021/12/09 20:18:39;;;;;;;44.17;26.20;;;;;;;2.21;72.17;96563.38;9811326;30;20500;-77
2021/12/09 20:24:02;;;;;;;40.90;24.05;;;;;;;2.27;72.22;96564.59;9814619;30;20058;-79
2021/12/09 20:29:23;;;;;;;39.38;24.20;;;;;;;2.25;72.29;96572.00;9828774;30;20048;-78
2021/12/09 20:34:45;;;;;;;38.80;23.23;;;;;;;2.24;72.31;96571.25;9816187;30;20052;-78
2021/12/09 20:40:07;;;;;;;38.13;22.75;;;;;;;2.24;72.38;96570.53;9812252;30;20081;-77
2021/12/09 20:45:28;;;;;;;36.33;21.88;;;;;;;2.27;72.10;96561.84;9811092;30;20411;-77
2021/12/09 20:50:49;;;;;;;34.38;21.35;;;;;;;2.32;72.16;96565.69;9810807;30;20056;-77
2021/12/09 20:56:10;;;;;;;35.83;20.88;;;;;;;2.26;72.23;96576.19;9810230;30;20071;-78
2021/12/09 21:01:36;;;;;;;30.83;18.38;;;;;;;2.29;72.83;96561.28;9830150;30;20056;-78
2021/12/09 21:06:58;;;;;;;31.20;19.50;;;;;;;2.36;73.08;96563.22;9823063;30;20056;-77
2021/12/09 21:12:24;;;;;;;27.98;17.42;;;;;;;2.37;72.64;96559.19;9799280;30;20547;-77
2021/12/09 21:17:45;;;;;;;26.50;16.67;;;;;;;2.38;72.36;96565.41;9822541;30;20064;-77
2021/12/09 21:23:07;;;;;;;23.27;14.40;;;;;;;2.40;73.04;96571.81;9810673;30;20055;-79
2021/12/09 21:28:28;;;;;;;23.42;14.43;;;;;;;2.39;72.73;96573.09;9823678;30;20052;-79
2021/12/09 21:34:00;;;;;;;19.70;13.35;;;;;;;2.41;72.42;96556.72;9823133;30;20048;-79
2021/12/09 21:39:22;;;;;;;20.40;13.52;;;;;;;2.43;72.70;96542.41;9824444;30;20393;-79
2021/12/09 21:44:44;;;;;;;17.42;11.70;;;;;;;2.42;72.95;96551.97;9824218;30;20048;-78
2021/12/09 21:50:06;;;;;;;17.50;12.02;;;;;;;2.43;72.90;96545.91;9817611;30;20048;-77
2021/12/09 21:55:27;;;;;;;18.80;11.70;;;;;;;2.44;73.70;96554.88;9809646;30;20052;-78
2021/12/09 22:00:49;;;;;;;17.27;11.23;;;;;;;2.44;73.12;96552.13;9809233;30;20044;-77
2021/12/09 22:06:10;;;;;;;21.83;13.10;;;;;;;2.42;73.50;96544.44;9825253;30;20550;-82
2021/12/09 22:11:32;;;;;;;16.88;10.93;;;;;;;2.43;73.03;96548.66;9818932;30;20051;-81
2021/12/09 22:16:53;;;;;;;14.80;9.68;;;;;;;2.43;73.12;96554.16;9814436;30;20056;-81
2021/12/09 22:22:18;;;;;;;14.27;9.25;;;;;;;2.42;73.17;96544.44;9815163;30;20071;-82
2021/12/09 22:27:39;;;;;;;13.80;8.85;;;;;;;2.45;73.26;96540.53;9815786;30;20052;-81
2021/12/09 22:34:12;;;;;;;12.80;8.73;;;;;;;2.46;73.35;96539.25;9816046;30;20045;-82
2021/12/09 22:39:36;;;;;;;11.77;7.78;;;;;;;2.44;73.57;96530.09;9834837;30;20055;-81
2021/12/09 22:45:00;;;;;;;11.00;8.07;;;;;;;2.41;73.74;96531.94;9817313;30;20139;-81
2021/12/09 22:50:21;;;;;;;11.85;8.00;;;;;;;2.40;73.95;96522.22;9815933;30;20071;-81
2021/12/09 22:55:44;;;;;;;11.13;8.00;;;;;;;2.41;73.36;96518.16;9814861;30;20063;-81
2021/12/09 23:01:09;;;;;;;11.38;7.95;;;;;;;2.39;73.62;96520.78;9827531;30;20454;-81
2021/12/09 23:06:30;;;;;;;9.38;7.25;;;;;;;2.42;73.83;96524.44;9842197;30;20062;-81
2021/12/09 23:13:27;;;;;;;8.68;6.70;;;;;;;2.40;73.74;96508.47;9825797;30;20060;-81
2021/12/09 23:19:16;;;;;;;9.75;6.32;;;;;;;2.38;73.58;96519.31;9841880;30;20060;-81
2021/12/09 23:32:39;;;;;;;8.75;6.38;;;;;;;2.29;73.39;96511.72;9832469;30;20056;-81
2021/12/09 23:38:38;;;;;;;9.57;6.47;;;;;;;2.29;74.10;96508.97;9824296;30;20060;-81
2021/12/09 23:44:33;;;;;;;10.15;6.45;;;;;;;2.29;74.26;96508.97;9833452;30;20102;-81
2021/12/09 23:50:36;;;;;;;8.13;6.15;;;;;;;2.29;74.70;96511.72;9803197;30;20051;-81
2021/12/09 23:57:29;;;;;;;9.98;6.45;;;;;;;2.26;74.52;96501.84;9830634;30;20056;-81
